createdAt,value
2018-06-18T00:00:23.581Z,5.60
2018-06-18T00:02:52.122Z,6.10
2018-06-18T00:05:20.625Z,5.73
2018-06-18T00:07:50.196Z,5.83
2018-06-18T00:10:18.648Z,5.53
2018-06-18T00:12:47.170Z,6.33
2018-06-18T00:15:15.683Z,5.67
2018-06-18T00:17:44.202Z,5.53
2018-06-18T00:20:12.687Z,6.00
2018-06-18T00:22:41.183Z,5.67
2018-06-18T00:25:09.666Z,5.80
2018-06-18T00:27:38.196Z,5.50
2018-06-18T00:30:06.656Z,5.60
2018-06-18T00:32:35.155Z,5.60
2018-06-18T00:35:03.665Z,5.33
2018-06-18T00:37:32.164Z,4.93
2018-06-18T00:40:00.625Z,5.20
2018-06-18T00:42:29.146Z,5.57
2018-06-18T00:44:57.621Z,5.13
2018-06-18T00:47:26.111Z,5.57
2018-06-18T00:49:54.567Z,5.47
2018-06-18T00:52:23.065Z,5.80
2018-06-18T00:54:51.524Z,5.30
2018-06-18T00:57:20.040Z,5.50
2018-06-18T00:59:48.506Z,5.20
2018-06-18T01:02:17.023Z,5.43
2018-06-18T01:04:45.492Z,5.10
2018-06-18T01:07:14.036Z,4.97
2018-06-18T01:09:42.505Z,5.20
2018-06-18T01:12:11.017Z,5.60
2018-06-18T01:14:40.000Z,4.90
2018-06-18T01:17:08.536Z,5.63
2018-06-18T01:19:37.001Z,4.70
2018-06-18T01:22:05.852Z,5.30
2018-06-18T01:24:41.584Z,4.87
2018-06-18T01:27:10.115Z,5.60
2018-06-18T01:29:38.694Z,5.47
2018-06-18T01:32:07.243Z,5.30
2018-06-18T01:34:35.768Z,5.90
2018-06-18T01:37:04.295Z,6.13
2018-06-18T01:39:32.758Z,6.10
2018-06-18T01:42:01.247Z,6.10
2018-06-18T01:44:29.722Z,6.57
2018-06-18T01:46:58.211Z,6.33
2018-06-18T01:49:26.648Z,6.10
2018-06-18T01:51:55.168Z,5.73
2018-06-18T01:54:23.620Z,6.27
2018-06-18T01:56:52.075Z,6.67
2018-06-18T01:59:20.629Z,6.20
2018-06-18T02:01:49.084Z,6.83
2018-06-18T02:04:17.577Z,6.30
2018-06-18T02:06:46.147Z,6.47
2018-06-18T02:09:14.631Z,6.40
2018-06-18T02:11:43.147Z,6.67
2018-06-18T02:14:12.064Z,6.60
2018-06-18T02:16:40.691Z,6.10
2018-06-18T02:19:09.396Z,6.97
2018-06-18T02:21:38.232Z,6.70
2018-06-18T02:24:06.748Z,6.80
2018-06-18T02:26:35.351Z,6.87
2018-06-18T02:29:09.088Z,7.00
2018-06-18T02:31:42.972Z,6.90
2018-06-18T02:34:16.639Z,7.17
2018-06-18T02:36:50.401Z,7.13
2018-06-18T02:39:19.233Z,7.23
2018-06-18T02:41:47.775Z,6.13
2018-06-18T02:44:16.248Z,6.70
2018-06-18T02:46:44.744Z,6.60
2018-06-18T02:49:13.185Z,6.80
2018-06-18T02:51:41.762Z,6.43
2018-06-18T02:54:10.472Z,6.30
2018-06-18T02:56:48.410Z,6.20
2018-06-18T02:59:17.200Z,6.50
2018-06-18T03:01:45.803Z,5.73
2018-06-18T03:04:14.319Z,6.33
2018-06-18T03:06:42.929Z,6.53
2018-06-18T03:09:12.657Z,6.87
2018-06-18T03:11:41.265Z,6.60
2018-06-18T03:14:10.294Z,6.67
2018-06-18T03:16:39.836Z,6.40
2018-06-18T03:19:13.740Z,6.50
2018-06-18T03:21:47.567Z,6.33
2018-06-18T03:24:21.319Z,6.00
2018-06-18T03:26:55.162Z,5.63
2018-06-18T03:29:25.877Z,5.90
2018-06-18T03:31:56.101Z,6.07
2018-06-18T03:34:24.585Z,5.30
2018-06-18T03:36:53.402Z,5.30
2018-06-18T03:39:21.940Z,5.20
2018-06-18T03:41:51.705Z,4.63
2018-06-18T03:44:29.291Z,4.50
2018-06-18T03:46:59.863Z,4.30
2018-06-18T03:49:28.425Z,4.40
2018-06-18T03:51:56.918Z,4.13
2018-06-18T03:54:25.387Z,4.23
2018-06-18T03:56:53.886Z,4.00
2018-06-18T03:59:22.335Z,3.83
2018-06-18T04:03:00.989Z,3.57
2018-06-18T04:05:35.061Z,3.63
2018-06-18T04:08:09.262Z,3.60
2018-06-18T04:10:43.492Z,3.50
2018-06-18T04:13:11.999Z,3.20
2018-06-18T04:15:40.453Z,3.83
2018-06-18T04:18:08.949Z,3.43
2018-06-18T04:20:44.344Z,3.17
2018-06-18T04:23:12.876Z,3.50
2018-06-18T04:25:41.363Z,3.60
2018-06-18T04:28:09.916Z,3.50
2018-06-18T04:30:38.451Z,3.37
2018-06-18T04:33:07.445Z,3.40
2018-06-18T04:35:35.961Z,3.37
2018-06-18T04:38:04.529Z,3.50
2018-06-18T04:40:33.454Z,3.50
2018-06-18T04:43:07.139Z,3.60
2018-06-18T04:45:40.896Z,3.33
2018-06-18T04:48:14.658Z,3.60
2018-06-18T04:51:01.258Z,3.60
2018-06-18T04:53:30.184Z,3.10
2018-06-18T04:55:58.681Z,3.37
2018-06-18T04:58:27.201Z,3.23
2018-06-18T05:01:04.086Z,2.90
2018-06-18T05:03:32.616Z,2.97
2018-06-18T05:06:01.137Z,3.33
2018-06-18T05:10:39.687Z,3.00
2018-06-18T05:13:08.205Z,3.30
2018-06-18T05:15:38.935Z,3.17
2018-06-18T05:18:07.509Z,2.90
2018-06-18T05:20:36.406Z,3.10
2018-06-18T05:23:09.061Z,3.27
2018-06-18T05:25:37.567Z,3.00
2018-06-18T05:28:06.236Z,2.63
2018-06-18T05:30:34.746Z,2.90
2018-06-18T05:33:03.212Z,2.90
2018-06-18T05:35:31.710Z,2.90
2018-06-18T05:38:07.839Z,3.10
2018-06-18T05:40:36.455Z,2.90
2018-06-18T05:43:04.968Z,2.80
2018-06-18T05:45:33.471Z,3.10
2018-06-18T05:48:03.453Z,2.70
2018-06-18T05:50:32.055Z,2.50
2018-06-18T05:53:00.527Z,2.40
2018-06-18T05:55:29.066Z,2.80
2018-06-18T05:57:57.556Z,2.90
2018-06-18T06:00:26.123Z,2.90
2018-06-18T06:02:54.567Z,2.60
2018-06-18T06:05:23.080Z,3.00
2018-06-18T06:07:51.881Z,2.53
2018-06-18T06:10:20.388Z,2.60
2018-06-18T06:12:48.895Z,2.50
2018-06-18T06:15:17.399Z,2.70
2018-06-18T06:17:45.885Z,2.43
2018-06-18T06:20:14.432Z,2.43
2018-06-18T06:22:42.940Z,2.40
2018-06-18T06:25:11.569Z,2.80
2018-06-18T06:27:40.081Z,2.67
2018-06-18T06:30:08.609Z,2.80
2018-06-18T06:32:37.112Z,3.00
2018-06-18T06:35:24.019Z,2.77
2018-06-18T06:37:52.603Z,2.67
2018-06-18T06:40:21.144Z,2.70
2018-06-18T06:42:49.617Z,2.50
2018-06-18T06:45:19.179Z,3.03
2018-06-18T06:47:47.661Z,2.70
2018-06-18T06:50:16.207Z,2.50
2018-06-18T06:52:45.168Z,2.23
2018-06-18T06:55:13.673Z,2.50
2018-06-18T06:57:42.140Z,2.43
2018-06-18T07:00:10.668Z,2.70
2018-06-18T07:02:39.257Z,2.57
2018-06-18T07:05:08.041Z,2.70
2018-06-18T07:07:36.543Z,2.13
2018-06-18T07:10:05.211Z,2.43
2018-06-18T07:12:33.672Z,2.10
2018-06-18T07:15:02.153Z,2.37
2018-06-18T07:17:30.721Z,2.50
2018-06-18T07:19:59.202Z,2.10
2018-06-18T07:22:27.821Z,2.30
2018-06-18T07:24:56.329Z,2.10
2018-06-18T07:27:24.906Z,2.57
2018-06-18T07:29:53.511Z,2.10
2018-06-18T07:32:22.156Z,2.50
2018-06-18T07:34:50.751Z,2.37
2018-06-18T07:37:19.432Z,2.23
2018-06-18T07:39:48.361Z,2.20
2018-06-18T07:42:16.988Z,1.80
2018-06-18T07:44:45.734Z,2.00
2018-06-18T07:47:14.489Z,1.97
2018-06-18T07:49:43.056Z,2.00
2018-06-18T07:52:11.626Z,2.00
2018-06-18T07:54:40.212Z,1.87
2018-06-18T07:57:08.879Z,1.87
2018-06-18T07:59:37.649Z,1.97
2018-06-18T08:02:06.261Z,1.90
2018-06-18T08:04:34.807Z,1.57
2018-06-18T08:07:03.401Z,2.33
2018-06-18T08:09:31.963Z,1.83
2018-06-18T08:12:01.856Z,2.20
2018-06-18T08:14:30.354Z,2.23
2018-06-18T08:16:58.927Z,2.27
2018-06-18T08:19:27.508Z,2.30
2018-06-18T08:21:56.064Z,2.10
2018-06-18T08:24:24.645Z,2.77
2018-06-18T08:26:53.426Z,2.20
2018-06-18T08:29:22.008Z,1.97
2018-06-18T08:31:50.670Z,1.97
2018-06-18T08:34:19.323Z,1.97
2018-06-18T08:36:47.906Z,1.50
2018-06-18T08:39:16.496Z,1.60
2018-06-18T08:41:45.207Z,1.80
2018-06-18T08:44:13.825Z,1.77
2018-06-18T08:46:42.483Z,2.10
2018-06-18T08:49:11.152Z,2.00
2018-06-18T08:51:45.938Z,1.87
2018-06-18T08:54:19.812Z,1.80
2018-06-18T08:56:54.782Z,1.83
2018-06-18T08:59:28.613Z,1.80
2018-06-18T09:01:57.269Z,2.00
2018-06-18T09:04:31.212Z,1.90
2018-06-18T09:07:03.229Z,1.73
2018-06-18T09:09:31.924Z,2.00
2018-06-18T09:12:00.552Z,2.30
2018-06-18T09:14:29.149Z,1.90
2018-06-18T09:16:57.836Z,1.80
2018-06-18T09:19:26.442Z,1.90
2018-06-18T09:21:55.146Z,1.83
2018-06-18T09:24:32.012Z,1.70
2018-06-18T09:27:05.763Z,2.30
2018-06-18T09:29:34.746Z,2.17
2018-06-18T09:32:03.427Z,2.20
2018-06-18T09:34:32.086Z,2.22
2018-06-18T09:37:00.736Z,2.05
2018-06-18T09:39:29.283Z,1.92
2018-06-18T09:41:57.856Z,2.00
2018-06-18T09:44:26.497Z,2.33
2018-06-18T09:46:54.958Z,2.10
2018-06-18T09:49:28.720Z,1.90
2018-06-18T09:52:02.476Z,2.10
2018-06-18T09:54:36.335Z,2.10
2018-06-18T09:57:15.487Z,2.25
2018-06-18T09:59:49.369Z,2.33
2018-06-18T10:02:17.976Z,2.22
2018-06-18T10:04:46.475Z,2.55
2018-06-18T10:07:15.053Z,2.40
2018-06-18T10:09:43.610Z,3.20
2018-06-18T10:12:12.102Z,2.27
2018-06-18T10:14:40.653Z,2.10
2018-06-18T10:17:09.228Z,2.35
2018-06-18T10:19:37.844Z,2.20
2018-06-18T10:22:06.362Z,2.02
2018-06-18T10:24:34.982Z,2.00
2018-06-18T10:27:03.457Z,2.12
2018-06-18T10:29:31.972Z,2.00
2018-06-18T10:32:00.456Z,2.25
2018-06-18T10:34:34.055Z,2.12
2018-06-18T10:37:07.860Z,2.05
2018-06-18T10:39:41.592Z,2.08
2018-06-18T10:42:15.348Z,2.10
2018-06-18T10:44:43.974Z,1.70
2018-06-18T10:47:12.424Z,1.95
2018-06-18T10:49:41.057Z,2.00
2018-06-18T10:52:09.592Z,1.72
2018-06-18T10:54:38.055Z,2.12
2018-06-18T10:57:06.584Z,1.90
2018-06-18T10:59:35.063Z,1.98
2018-06-18T11:02:03.660Z,1.77
2018-06-18T11:04:32.478Z,2.10
2018-06-18T11:07:02.046Z,1.82
2018-06-18T11:09:30.655Z,1.80
2018-06-18T11:11:59.191Z,1.22
2018-06-18T11:14:27.670Z,1.65
2018-06-18T11:17:01.721Z,1.47
2018-06-18T11:19:35.145Z,1.60
2018-06-18T11:22:03.912Z,2.10
2018-06-18T11:25:36.295Z,1.65
2018-06-18T11:28:04.928Z,1.52
2018-06-18T11:30:34.161Z,1.82
2018-06-18T11:33:02.648Z,1.82
2018-06-18T11:35:34.246Z,1.70
2018-06-18T11:38:02.763Z,1.72
2018-06-18T11:40:31.394Z,1.70
2018-06-18T11:42:59.915Z,1.50
2018-06-18T11:45:28.440Z,1.62
2018-06-18T11:48:09.222Z,1.70
2018-06-18T11:50:38.175Z,1.75
2018-06-18T11:53:06.855Z,1.98
2018-06-18T11:55:36.090Z,2.20
2018-06-18T11:58:05.192Z,2.00
2018-06-18T12:00:39.263Z,1.98
2018-06-18T12:03:13.110Z,1.98
2018-06-18T12:05:47.055Z,2.22
2018-06-18T12:08:21.160Z,1.72
2018-06-18T12:10:50.875Z,1.90
2018-06-18T12:13:19.510Z,1.90
2018-06-18T12:15:48.194Z,2.00
2018-06-18T12:18:16.844Z,1.80
2018-06-18T12:20:45.756Z,1.92
2018-06-18T12:23:14.367Z,2.10
2018-06-18T12:25:44.273Z,2.40
2018-06-18T12:28:13.030Z,2.10
2018-06-18T12:30:41.683Z,2.10
2018-06-18T12:33:14.264Z,2.10
2018-06-18T12:35:42.855Z,2.37
2018-06-18T12:38:11.492Z,2.40
2018-06-18T12:40:40.086Z,3.22
2018-06-18T12:43:09.215Z,2.12
2018-06-18T12:45:43.131Z,1.92
2018-06-18T12:48:19.114Z,1.90
2018-06-18T12:50:53.099Z,2.10
2018-06-18T12:53:27.062Z,1.70
2018-06-18T12:56:00.937Z,1.70
2018-06-18T12:58:29.594Z,1.80
2018-06-18T13:00:58.207Z,1.85
2018-06-18T13:03:26.945Z,1.90
2018-06-18T13:05:55.661Z,1.60
2018-06-18T13:08:24.387Z,1.60
2018-06-18T13:10:53.000Z,1.80
2018-06-18T13:13:21.624Z,2.10
2018-06-18T13:15:50.176Z,1.62
2018-06-18T13:18:18.852Z,1.67
2018-06-18T13:20:47.900Z,1.70
2018-06-18T13:23:16.553Z,1.80
2018-06-18T13:25:46.057Z,1.70
2018-06-18T13:28:16.182Z,1.82
2018-06-18T13:30:45.314Z,1.52
2018-06-18T13:33:13.959Z,1.65
2018-06-18T13:35:42.635Z,1.90
2018-06-18T13:38:16.587Z,1.72
2018-06-18T13:40:50.459Z,2.00
2018-06-18T13:43:24.410Z,1.92
2018-06-18T13:45:58.311Z,2.15
2018-06-18T13:48:32.345Z,1.70
2018-06-18T13:51:01.003Z,2.27
2018-06-18T13:53:29.610Z,1.80
2018-06-18T13:55:58.200Z,2.00
2018-06-18T13:58:26.910Z,2.10
2018-06-18T14:00:55.499Z,2.08
2018-06-18T14:03:24.160Z,2.10
2018-06-18T14:05:52.727Z,2.20
2018-06-18T14:08:21.426Z,2.10
2018-06-18T14:10:50.022Z,2.30
2018-06-18T14:13:18.653Z,2.25
2018-06-18T14:15:47.263Z,2.25
2018-06-18T14:18:16.949Z,2.12
2018-06-18T14:20:45.559Z,1.95
2018-06-18T14:23:14.161Z,2.08
2018-06-18T14:25:42.854Z,2.20
2018-06-18T14:28:11.522Z,2.12
2018-06-18T14:30:45.485Z,2.27
2018-06-18T14:33:19.347Z,1.80
2018-06-18T14:35:53.308Z,2.08
2018-06-18T14:38:27.295Z,1.90
2018-06-18T14:40:56.103Z,1.98
2018-06-18T14:43:24.836Z,2.10
2018-06-18T14:45:53.506Z,1.70
2018-06-18T14:48:26.486Z,1.80
2018-06-18T14:50:56.183Z,1.40
2018-06-18T14:53:24.770Z,1.40
2018-06-18T14:56:02.112Z,1.30
2018-06-18T14:58:30.747Z,1.30
2018-06-18T15:00:59.804Z,1.40
2018-06-18T15:03:28.462Z,1.50
2018-06-18T15:05:57.322Z,1.60
2018-06-18T15:08:27.048Z,1.77
2018-06-18T15:10:55.684Z,1.62
2018-06-18T15:13:24.321Z,1.72
2018-06-18T15:15:58.112Z,1.30
2018-06-18T15:18:26.728Z,1.50
2018-06-18T15:20:58.361Z,1.60
2018-06-18T15:23:27.178Z,1.40
2018-06-18T15:25:56.161Z,1.60
2018-06-18T15:28:24.758Z,1.67
2018-06-18T15:30:53.434Z,1.75
2018-06-18T15:33:22.512Z,1.57
2018-06-18T15:35:51.107Z,1.82
2018-06-18T15:38:19.919Z,2.00
2018-06-18T15:40:48.420Z,1.95
2018-06-18T15:43:17.749Z,2.12
2018-06-18T15:45:46.241Z,1.77
2018-06-18T15:48:14.756Z,1.87
2018-06-18T15:50:43.281Z,1.82
2018-06-18T15:53:11.769Z,1.90
2018-06-18T15:55:40.273Z,2.00
2018-06-18T15:58:08.764Z,1.80
2018-06-18T16:00:40.396Z,1.80
2018-06-18T16:03:08.903Z,1.95
2018-06-18T16:05:37.640Z,1.70
2018-06-18T16:08:06.204Z,1.82
2018-06-18T16:10:34.919Z,2.00
2018-06-18T16:13:03.376Z,2.08
2018-06-18T16:15:31.877Z,1.80
2018-06-18T16:18:00.389Z,1.80
2018-06-18T16:20:28.913Z,1.87
2018-06-18T16:23:03.879Z,1.90
2018-06-18T16:25:32.372Z,1.80
2018-06-18T16:28:01.835Z,1.70
2018-06-18T16:30:30.368Z,2.12
2018-06-18T16:32:58.828Z,2.00
2018-06-18T16:35:27.327Z,2.20
2018-06-18T16:37:55.793Z,2.00
2018-06-18T16:40:28.868Z,2.30
2018-06-18T16:42:58.589Z,2.20
2018-06-18T16:45:27.027Z,1.70
2018-06-18T16:47:55.508Z,2.47
2018-06-18T16:50:23.980Z,1.82
2018-06-18T16:52:52.526Z,2.00
2018-06-18T16:55:21.105Z,1.70
2018-06-18T16:57:49.620Z,1.90
2018-06-18T17:00:18.144Z,1.60
2018-06-18T17:02:46.759Z,1.80
2018-06-18T17:05:15.194Z,1.80
2018-06-18T17:07:43.703Z,1.80
2018-06-18T17:10:12.209Z,1.90
2018-06-18T17:12:41.705Z,1.87
2018-06-18T17:15:10.169Z,1.72
2018-06-18T17:17:38.733Z,1.90
2018-06-18T17:20:07.276Z,1.98
2018-06-18T17:22:35.897Z,1.85
2018-06-18T17:25:04.387Z,1.90
2018-06-18T17:27:32.960Z,1.80
2018-06-18T17:30:01.485Z,1.85
2018-06-18T17:32:30.179Z,1.98
2018-06-18T17:34:58.696Z,1.98
2018-06-18T17:37:27.245Z,2.12
2018-06-18T17:39:55.911Z,1.87
2018-06-18T17:42:24.413Z,1.70
2018-06-18T17:44:52.922Z,1.90
2018-06-18T17:47:29.839Z,2.10
2018-06-18T17:49:58.962Z,1.65
2018-06-18T17:52:27.439Z,1.90
2018-06-18T17:54:55.903Z,2.10
2018-06-18T17:57:24.414Z,2.05
2018-06-18T17:59:53.176Z,1.77
2018-06-18T18:02:21.676Z,1.90
2018-06-18T18:04:50.178Z,1.85
2018-06-18T18:07:18.700Z,1.67
2018-06-18T18:09:47.209Z,1.60
2018-06-18T18:12:15.720Z,1.52
2018-06-18T18:14:44.236Z,1.50
2018-06-18T18:17:12.860Z,1.20
2018-06-18T18:19:41.355Z,1.40
2018-06-18T18:22:10.888Z,1.30
2018-06-18T18:24:39.784Z,1.25
2018-06-18T18:27:08.343Z,1.60
2018-06-18T18:29:36.846Z,1.50
2018-06-18T18:32:05.384Z,1.40
2018-06-18T18:34:36.911Z,1.40
2018-06-18T18:37:09.885Z,1.40
2018-06-18T18:39:38.317Z,1.40
2018-06-18T18:42:10.952Z,1.50
2018-06-18T18:44:39.437Z,1.50
2018-06-18T18:47:07.959Z,1.67
2018-06-18T18:49:36.425Z,1.70
2018-06-18T18:52:04.984Z,1.70
2018-06-18T18:55:47.863Z,1.50
2018-06-18T18:58:27.530Z,1.60
2018-06-18T19:00:55.991Z,1.33
2018-06-18T19:03:28.312Z,1.60
2018-06-18T19:05:58.309Z,1.60
2018-06-18T19:08:29.155Z,1.60
2018-06-18T19:11:00.348Z,1.60
2018-06-18T19:13:31.277Z,1.87
2018-06-18T19:16:00.259Z,1.70
2018-06-18T19:18:34.519Z,1.67
2018-06-18T19:21:07.177Z,1.60
2018-06-18T19:23:35.805Z,1.87
2018-06-18T19:26:04.351Z,1.53
2018-06-18T19:28:33.165Z,1.67
2018-06-18T19:31:18.001Z,1.77
2018-06-18T19:34:08.558Z,1.93
2018-06-18T19:36:39.948Z,1.70
2018-06-18T19:39:11.841Z,1.70
2018-06-18T19:41:40.618Z,1.50
2018-06-18T19:44:09.410Z,2.20
2018-06-18T19:47:01.154Z,2.27
2018-06-18T19:49:29.908Z,1.90
2018-06-18T19:51:58.587Z,1.80
2018-06-18T19:54:30.437Z,1.80
2018-06-18T19:56:58.960Z,2.07
2018-06-18T19:59:27.634Z,1.80
2018-06-18T20:01:56.114Z,1.60
2018-06-18T20:04:24.618Z,1.90
2018-06-18T20:06:53.091Z,1.90
2018-06-18T20:09:22.048Z,1.90
2018-06-18T20:11:50.555Z,1.80
2018-06-18T20:14:19.123Z,1.93
2018-06-18T20:16:47.984Z,1.90
2018-06-18T20:19:16.560Z,2.00
2018-06-18T20:21:45.591Z,2.30
2018-06-18T20:24:14.139Z,1.90
2018-06-18T20:26:42.605Z,2.17
2018-06-18T20:29:11.157Z,1.93
2018-06-18T20:31:40.657Z,2.10
2018-06-18T20:34:09.306Z,2.40
2018-06-18T20:36:37.761Z,2.00
2018-06-18T20:39:09.179Z,2.20
2018-06-18T20:41:39.634Z,2.00
2018-06-18T20:44:20.972Z,2.10
2018-06-18T20:46:49.610Z,2.03
2018-06-18T20:49:18.867Z,2.07
2018-06-18T20:51:48.179Z,2.20
2018-06-18T20:54:16.895Z,1.83
2018-06-18T20:56:45.538Z,2.30
2018-06-18T20:59:14.715Z,2.17
2018-06-18T21:01:44.236Z,2.43
2018-06-18T21:04:12.721Z,1.80
2018-06-18T21:06:43.316Z,2.07
2018-06-18T21:09:12.417Z,2.20
2018-06-18T21:11:41.061Z,1.87
2018-06-18T21:14:10.796Z,2.10
2018-06-18T21:16:41.560Z,1.90
2018-06-18T21:19:10.081Z,2.10
2018-06-18T21:21:38.656Z,2.27
2018-06-18T21:24:07.237Z,2.00
2018-06-18T21:26:35.769Z,2.40
2018-06-18T21:29:04.456Z,2.10
2018-06-18T21:31:32.961Z,2.13
2018-06-18T21:34:01.448Z,2.07
2018-06-18T21:36:29.988Z,2.57
2018-06-18T21:38:58.471Z,2.30
2018-06-18T21:41:26.987Z,2.33
2018-06-18T21:43:56.492Z,2.30
2018-06-18T21:46:25.079Z,2.50
2018-06-18T21:48:53.552Z,2.20
2018-06-18T21:51:22.508Z,2.50
2018-06-18T21:53:50.973Z,2.37
2018-06-18T21:56:19.480Z,2.40
2018-06-18T21:58:47.941Z,2.40
2018-06-18T22:01:26.405Z,2.03
2018-06-18T22:03:54.901Z,2.40
2018-06-18T22:06:23.420Z,2.20
2018-06-18T22:08:51.952Z,2.33
2018-06-18T22:11:20.431Z,2.17
2018-06-18T22:13:48.951Z,2.53
2018-06-18T22:16:17.426Z,2.40
2018-06-18T22:18:45.955Z,2.50
2018-06-18T22:21:14.420Z,2.40
2018-06-18T22:23:42.935Z,2.63
2018-06-18T22:26:11.477Z,2.50
2018-06-18T22:28:41.492Z,2.00
2018-06-18T22:31:09.990Z,2.37
2018-06-18T22:33:38.523Z,2.47
2018-06-18T22:36:07.000Z,2.23
2018-06-18T22:38:35.524Z,2.47
2018-06-18T22:41:04.084Z,2.63
2018-06-18T22:43:33.107Z,2.40
2018-06-18T22:46:01.633Z,2.40
2018-06-18T22:48:30.752Z,2.60
2018-06-18T22:50:59.305Z,2.53
2018-06-18T22:53:27.821Z,2.60
2018-06-18T22:55:56.280Z,2.73
2018-06-18T22:58:24.787Z,2.60
2018-06-18T23:00:55.292Z,2.63
2018-06-18T23:03:23.873Z,2.43
2018-06-18T23:08:48.583Z,2.63
2018-06-18T23:11:17.319Z,2.60
2018-06-18T23:13:46.100Z,2.90
2018-06-18T23:16:14.831Z,2.93
2018-06-18T23:18:43.625Z,3.10
2018-06-18T23:21:12.336Z,2.50
2018-06-18T23:23:41.197Z,2.53
2018-06-18T23:26:09.939Z,2.73
2018-06-18T23:28:43.233Z,2.97
2018-06-18T23:31:11.961Z,2.70
2018-06-18T23:33:40.678Z,2.63
2018-06-18T23:36:09.428Z,2.60
2018-06-18T23:38:38.229Z,2.50
2018-06-18T23:41:07.179Z,2.70
2018-06-18T23:43:35.879Z,2.93
2018-06-18T23:46:04.932Z,2.90
2018-06-18T23:48:33.671Z,2.87
2018-06-18T23:51:02.412Z,2.60
2018-06-18T23:53:31.119Z,2.80
2018-06-18T23:55:59.968Z,2.87
2018-06-18T23:58:28.969Z,3.03
